sensor_id;sensor_type;location;lat;lon;timestamp;temperature;humidity
75615;DHT22;64199;48.578;-4.520;2024-02-26T00:00:33;25.50;45.70
75615;DHT22;64199;48.578;-4.520;2024-02-26T00:03:00;25.50;45.70
75615;DHT22;64199;48.578;-4.520;2024-02-26T00:05:26;25.50;45.60
75615;DHT22;64199;48.578;-4.520;2024-02-26T00:07:52;25.50;45.60
75615;DHT22;64199;48.578;-4.520;2024-02-26T00:10:18;25.50;45.60
75615;DHT22;64199;48.578;-4.520;2024-02-26T00:12:44;25.50;45.60
75615;DHT22;64199;48.578;-4.520;2024-02-26T00:15:10;25.50;45.60
75615;DHT22;64199;48.578;-4.520;2024-02-26T00:17:36;25.50;45.60
75615;DHT22;64199;48.578;-4.520;2024-02-26T00:20:03;25.50;45.50
75615;DHT22;64199;48.578;-4.520;2024-02-26T00:22:39;25.50;45.40
75615;DHT22;64199;48.578;-4.520;2024-02-26T00:25:05;25.40;45.40
75615;DHT22;64199;48.578;-4.520;2024-02-26T00:27:31;25.50;45.50
75615;DHT22;64199;48.578;-4.520;2024-02-26T00:29:57;25.40;45.40
75615;DHT22;64199;48.578;-4.520;2024-02-26T00:32:23;25.40;45.40
75615;DHT22;64199;48.578;-4.520;2024-02-26T00:34:49;25.40;45.50
75615;DHT22;64199;48.578;-4.520;2024-02-26T00:37:16;25.40;45.50
75615;DHT22;64199;48.578;-4.520;2024-02-26T00:39:41;25.40;45.60
75615;DHT22;64199;48.578;-4.520;2024-02-26T00:42:07;25.40;45.50
75615;DHT22;64199;48.578;-4.520;2024-02-26T00:44:33;25.40;45.60
75615;DHT22;64199;48.578;-4.520;2024-02-26T00:46:59;25.40;45.60
75615;DHT22;64199;48.578;-4.520;2024-02-26T00:49:25;25.30;45.30
75615;DHT22;64199;48.578;-4.520;2024-02-26T00:51:51;25.30;45.20
75615;DHT22;64199;48.578;-4.520;2024-02-26T00:54:17;25.30;45.30
75615;DHT22;64199;48.578;-4.520;2024-02-26T00:56:43;25.30;45.30
75615;DHT22;64199;48.578;-4.520;2024-02-26T00:59:08;25.30;45.30
75615;DHT22;64199;48.578;-4.520;2024-02-26T01:01:34;25.30;45.40
75615;DHT22;64199;48.578;-4.520;2024-02-26T01:04:00;25.30;45.50
75615;DHT22;64199;48.578;-4.520;2024-02-26T01:06:26;25.20;45.40
75615;DHT22;64199;48.578;-4.520;2024-02-26T01:08:52;25.30;45.30
75615;DHT22;64199;48.578;-4.520;2024-02-26T01:11:18;25.20;45.30
75615;DHT22;64199;48.578;-4.520;2024-02-26T01:13:44;25.20;45.30
75615;DHT22;64199;48.578;-4.520;2024-02-26T01:16:09;25.20;45.30
75615;DHT22;64199;48.578;-4.520;2024-02-26T01:18:36;25.20;45.40
75615;DHT22;64199;48.578;-4.520;2024-02-26T01:21:02;25.20;45.40
75615;DHT22;64199;48.578;-4.520;2024-02-26T01:23:30;25.20;45.30
75615;DHT22;64199;48.578;-4.520;2024-02-26T01:25:55;25.20;45.30
75615;DHT22;64199;48.578;-4.520;2024-02-26T01:28:21;25.20;45.30
75615;DHT22;64199;48.578;-4.520;2024-02-26T01:30:47;25.10;45.20
75615;DHT22;64199;48.578;-4.520;2024-02-26T01:33:13;25.20;45.20
75615;DHT22;64199;48.578;-4.520;2024-02-26T01:35:39;25.10;45.20
75615;DHT22;64199;48.578;-4.520;2024-02-26T01:38:05;25.10;45.30
75615;DHT22;64199;48.578;-4.520;2024-02-26T01:40:31;25.10;45.30
75615;DHT22;64199;48.578;-4.520;2024-02-26T01:42:57;25.10;45.20
75615;DHT22;64199;48.578;-4.520;2024-02-26T01:45:23;25.10;45.20
75615;DHT22;64199;48.578;-4.520;2024-02-26T01:47:52;25.10;45.10
75615;DHT22;64199;48.578;-4.520;2024-02-26T01:50:19;25.10;45.10
75615;DHT22;64199;48.578;-4.520;2024-02-26T01:52:49;25.10;45.30
75615;DHT22;64199;48.578;-4.520;2024-02-26T01:55:15;25.10;45.30
75615;DHT22;64199;48.578;-4.520;2024-02-26T01:57:43;25.10;45.80
75615;DHT22;64199;48.578;-4.520;2024-02-26T02:00:10;25.10;45.10
75615;DHT22;64199;48.578;-4.520;2024-02-26T02:02:36;25.10;45.10
75615;DHT22;64199;48.578;-4.520;2024-02-26T02:05:03;25.00;45.00
75615;DHT22;64199;48.578;-4.520;2024-02-26T02:07:29;25.10;45.00
75615;DHT22;64199;48.578;-4.520;2024-02-26T02:09:55;25.00;44.90
75615;DHT22;64199;48.578;-4.520;2024-02-26T02:12:21;25.00;44.90
75615;DHT22;64199;48.578;-4.520;2024-02-26T02:14:47;25.00;44.90
75615;DHT22;64199;48.578;-4.520;2024-02-26T02:17:13;25.00;44.90
75615;DHT22;64199;48.578;-4.520;2024-02-26T02:19:39;25.00;44.90
75615;DHT22;64199;48.578;-4.520;2024-02-26T02:22:05;24.90;45.00
75615;DHT22;64199;48.578;-4.520;2024-02-26T02:24:31;25.00;45.10
75615;DHT22;64199;48.578;-4.520;2024-02-26T02:26:57;24.90;45.00
75615;DHT22;64199;48.578;-4.520;2024-02-26T02:29:23;24.90;45.00
75615;DHT22;64199;48.578;-4.520;2024-02-26T02:31:49;24.90;45.00
75615;DHT22;64199;48.578;-4.520;2024-02-26T02:34:15;24.80;44.90
75615;DHT22;64199;48.578;-4.520;2024-02-26T02:36:54;24.80;44.80
75615;DHT22;64199;48.578;-4.520;2024-02-26T02:39:20;24.80;44.70
75615;DHT22;64199;48.578;-4.520;2024-02-26T02:41:46;24.80;44.80
75615;DHT22;64199;48.578;-4.520;2024-02-26T02:44:12;24.80;44.80
75615;DHT22;64199;48.578;-4.520;2024-02-26T02:46:38;24.80;44.80
75615;DHT22;64199;48.578;-4.520;2024-02-26T02:49:11;25.40;44.60
75615;DHT22;64199;48.578;-4.520;2024-02-26T02:51:37;24.80;44.80
75615;DHT22;64199;48.578;-4.520;2024-02-26T02:54:03;24.70;44.70
75615;DHT22;64199;48.578;-4.520;2024-02-26T02:56:29;24.80;44.80
75615;DHT22;64199;48.578;-4.520;2024-02-26T02:58:55;24.70;44.70
75615;DHT22;64199;48.578;-4.520;2024-02-26T03:01:21;24.70;44.70
75615;DHT22;64199;48.578;-4.520;2024-02-26T03:03:47;24.70;44.70
75615;DHT22;64199;48.578;-4.520;2024-02-26T03:06:12;24.70;44.70
75615;DHT22;64199;48.578;-4.520;2024-02-26T03:08:38;24.70;44.80
75615;DHT22;64199;48.578;-4.520;2024-02-26T03:11:05;24.70;44.80
75615;DHT22;64199;48.578;-4.520;2024-02-26T03:13:31;24.60;44.70
75615;DHT22;64199;48.578;-4.520;2024-02-26T03:15:57;24.60;44.70
75615;DHT22;64199;48.578;-4.520;2024-02-26T03:18:23;24.60;44.80
75615;DHT22;64199;48.578;-4.520;2024-02-26T03:20:49;24.60;44.70
75615;DHT22;64199;48.578;-4.520;2024-02-26T03:23:15;24.60;44.70
75615;DHT22;64199;48.578;-4.520;2024-02-26T03:25:44;24.60;44.60
75615;DHT22;64199;48.578;-4.520;2024-02-26T03:28:12;24.50;44.30
75615;DHT22;64199;48.578;-4.520;2024-02-26T03:30:38;24.60;44.30
75615;DHT22;64199;48.578;-4.520;2024-02-26T03:33:04;24.60;44.70
75615;DHT22;64199;48.578;-4.520;2024-02-26T03:35:30;24.60;44.60
75615;DHT22;64199;48.578;-4.520;2024-02-26T03:37:55;24.50;44.60
75615;DHT22;64199;48.578;-4.520;2024-02-26T03:40:21;24.50;44.60
75615;DHT22;64199;48.578;-4.520;2024-02-26T03:42:47;24.50;44.60
75615;DHT22;64199;48.578;-4.520;2024-02-26T03:45:13;24.50;44.60
75615;DHT22;64199;48.578;-4.520;2024-02-26T03:47:39;24.40;44.50
75615;DHT22;64199;48.578;-4.520;2024-02-26T03:50:07;24.40;44.40
75615;DHT22;64199;48.578;-4.520;2024-02-26T03:52:34;24.40;44.50
75615;DHT22;64199;48.578;-4.520;2024-02-26T03:55:00;24.40;44.70
75615;DHT22;64199;48.578;-4.520;2024-02-26T03:57:25;24.40;44.80
75615;DHT22;64199;48.578;-4.520;2024-02-26T03:59:51;24.40;44.70
75615;DHT22;64199;48.578;-4.520;2024-02-26T04:02:17;24.40;44.70
75615;DHT22;64199;48.578;-4.520;2024-02-26T04:04:46;24.40;44.70
75615;DHT22;64199;48.578;-4.520;2024-02-26T04:07:12;24.30;44.70
75615;DHT22;64199;48.578;-4.520;2024-02-26T04:09:38;24.40;45.00
75615;DHT22;64199;48.578;-4.520;2024-02-26T04:12:05;24.30;44.80
75615;DHT22;64199;48.578;-4.520;2024-02-26T04:14:30;24.30;44.80
75615;DHT22;64199;48.578;-4.520;2024-02-26T04:16:56;24.30;44.80
75615;DHT22;64199;48.578;-4.520;2024-02-26T04:19:22;24.30;44.80
75615;DHT22;64199;48.578;-4.520;2024-02-26T04:21:48;24.30;44.70
75615;DHT22;64199;48.578;-4.520;2024-02-26T04:24:14;24.30;44.70
75615;DHT22;64199;48.578;-4.520;2024-02-26T04:26:40;24.30;44.60
75615;DHT22;64199;48.578;-4.520;2024-02-26T04:29:05;24.30;44.60
75615;DHT22;64199;48.578;-4.520;2024-02-26T04:31:31;24.20;44.60
75615;DHT22;64199;48.578;-4.520;2024-02-26T04:33:58;24.20;44.50
75615;DHT22;64199;48.578;-4.520;2024-02-26T04:36:24;24.20;44.50
75615;DHT22;64199;48.578;-4.520;2024-02-26T04:38:51;24.20;44.50
75615;DHT22;64199;48.578;-4.520;2024-02-26T04:41:20;24.20;44.60
75615;DHT22;64199;48.578;-4.520;2024-02-26T04:43:46;24.20;44.50
75615;DHT22;64199;48.578;-4.520;2024-02-26T04:46:11;24.20;44.60
75615;DHT22;64199;48.578;-4.520;2024-02-26T04:48:37;24.20;44.60
75615;DHT22;64199;48.578;-4.520;2024-02-26T04:51:04;24.10;44.60
75615;DHT22;64199;48.578;-4.520;2024-02-26T04:53:30;24.10;45.20
75615;DHT22;64199;48.578;-4.520;2024-02-26T04:55:56;24.10;44.50
75615;DHT22;64199;48.578;-4.520;2024-02-26T04:58:23;24.10;44.50
75615;DHT22;64199;48.578;-4.520;2024-02-26T05:00:49;24.10;44.50
75615;DHT22;64199;48.578;-4.520;2024-02-26T05:03:14;24.10;44.60
75615;DHT22;64199;48.578;-4.520;2024-02-26T05:05:44;24.10;44.70
75615;DHT22;64199;48.578;-4.520;2024-02-26T05:08:10;24.10;44.60
75615;DHT22;64199;48.578;-4.520;2024-02-26T05:10:37;24.00;44.50
75615;DHT22;64199;48.578;-4.520;2024-02-26T05:13:06;24.00;44.50
75615;DHT22;64199;48.578;-4.520;2024-02-26T05:15:32;24.00;44.60
75615;DHT22;64199;48.578;-4.520;2024-02-26T05:17:58;24.00;44.60
75615;DHT22;64199;48.578;-4.520;2024-02-26T05:20:24;24.00;44.50
75615;DHT22;64199;48.578;-4.520;2024-02-26T05:22:51;24.00;44.60
75615;DHT22;64199;48.578;-4.520;2024-02-26T05:25:17;23.90;44.70
75615;DHT22;64199;48.578;-4.520;2024-02-26T05:27:43;23.90;44.70
75615;DHT22;64199;48.578;-4.520;2024-02-26T05:30:10;23.90;44.80
75615;DHT22;64199;48.578;-4.520;2024-02-26T05:32:36;23.90;44.90
75615;DHT22;64199;48.578;-4.520;2024-02-26T05:35:02;23.90;44.90
75615;DHT22;64199;48.578;-4.520;2024-02-26T05:37:29;23.90;45.00
75615;DHT22;64199;48.578;-4.520;2024-02-26T05:39:55;23.90;45.00
75615;DHT22;64199;48.578;-4.520;2024-02-26T05:42:21;23.90;45.00
75615;DHT22;64199;48.578;-4.520;2024-02-26T05:44:47;23.90;45.10
75615;DHT22;64199;48.578;-4.520;2024-02-26T05:47:13;23.90;45.10
75615;DHT22;64199;48.578;-4.520;2024-02-26T05:49:43;23.90;45.10
75615;DHT22;64199;48.578;-4.520;2024-02-26T05:52:08;23.80;45.30
75615;DHT22;64199;48.578;-4.520;2024-02-26T05:54:34;23.90;45.40
75615;DHT22;64199;48.578;-4.520;2024-02-26T05:57:00;23.90;45.20
75615;DHT22;64199;48.578;-4.520;2024-02-26T05:59:26;23.80;45.10
75615;DHT22;64199;48.578;-4.520;2024-02-26T06:01:52;23.80;45.10
75615;DHT22;64199;48.578;-4.520;2024-02-26T06:04:18;23.80;45.00
75615;DHT22;64199;48.578;-4.520;2024-02-26T06:06:44;23.80;45.10
75615;DHT22;64199;48.578;-4.520;2024-02-26T06:09:13;23.80;45.10
75615;DHT22;64199;48.578;-4.520;2024-02-26T06:11:39;23.70;45.00
75615;DHT22;64199;48.578;-4.520;2024-02-26T06:14:05;23.70;45.00
75615;DHT22;64199;48.578;-4.520;2024-02-26T06:16:30;23.70;45.00
75615;DHT22;64199;48.578;-4.520;2024-02-26T06:18:56;23.70;45.00
75615;DHT22;64199;48.578;-4.520;2024-02-26T06:21:22;23.70;45.00
75615;DHT22;64199;48.578;-4.520;2024-02-26T06:23:48;23.70;45.10
75615;DHT22;64199;48.578;-4.520;2024-02-26T06:26:16;23.70;45.10
75615;DHT22;64199;48.578;-4.520;2024-02-26T06:28:41;23.70;45.20
75615;DHT22;64199;48.578;-4.520;2024-02-26T06:31:07;23.70;45.20
75615;DHT22;64199;48.578;-4.520;2024-02-26T06:33:33;23.70;45.20
75615;DHT22;64199;48.578;-4.520;2024-02-26T06:35:59;23.70;45.20
75615;DHT22;64199;48.578;-4.520;2024-02-26T06:38:25;23.70;45.10
75615;DHT22;64199;48.578;-4.520;2024-02-26T06:40:50;23.70;45.20
75615;DHT22;64199;48.578;-4.520;2024-02-26T06:43:16;23.60;45.20
75615;DHT22;64199;48.578;-4.520;2024-02-26T06:45:42;23.60;45.20
75615;DHT22;64199;48.578;-4.520;2024-02-26T06:48:08;23.60;45.10
75615;DHT22;64199;48.578;-4.520;2024-02-26T06:50:33;23.50;45.00
75615;DHT22;64199;48.578;-4.520;2024-02-26T06:52:59;23.60;45.10
75615;DHT22;64199;48.578;-4.520;2024-02-26T06:55:25;23.60;45.10
75615;DHT22;64199;48.578;-4.520;2024-02-26T06:57:51;23.50;45.10
75615;DHT22;64199;48.578;-4.520;2024-02-26T07:00:17;23.60;45.20
75615;DHT22;64199;48.578;-4.520;2024-02-26T07:02:43;23.60;45.20
75615;DHT22;64199;48.578;-4.520;2024-02-26T07:05:09;23.60;45.20
75615;DHT22;64199;48.578;-4.520;2024-02-26T07:07:35;23.50;45.10
75615;DHT22;64199;48.578;-4.520;2024-02-26T07:10:01;23.50;45.20
75615;DHT22;64199;48.578;-4.520;2024-02-26T07:12:30;23.60;45.20
75615;DHT22;64199;48.578;-4.520;2024-02-26T07:14:56;23.50;45.10
75615;DHT22;64199;48.578;-4.520;2024-02-26T07:17:21;23.50;45.10
75615;DHT22;64199;48.578;-4.520;2024-02-26T07:19:47;23.50;45.10
75615;DHT22;64199;48.578;-4.520;2024-02-26T07:22:13;23.50;45.00
75615;DHT22;64199;48.578;-4.520;2024-02-26T07:24:39;23.50;45.10
75615;DHT22;64199;48.578;-4.520;2024-02-26T07:27:05;23.50;45.00
75615;DHT22;64199;48.578;-4.520;2024-02-26T07:29:31;23.50;45.00
75615;DHT22;64199;48.578;-4.520;2024-02-26T07:31:58;23.50;45.00
75615;DHT22;64199;48.578;-4.520;2024-02-26T07:34:24;23.50;45.00
75615;DHT22;64199;48.578;-4.520;2024-02-26T07:36:55;23.50;44.80
75615;DHT22;64199;48.578;-4.520;2024-02-26T07:39:21;23.50;44.90
75615;DHT22;64199;48.578;-4.520;2024-02-26T07:41:47;23.50;44.90
75615;DHT22;64199;48.578;-4.520;2024-02-26T07:44:15;23.50;44.90
75615;DHT22;64199;48.578;-4.520;2024-02-26T07:46:41;23.50;44.80
75615;DHT22;64199;48.578;-4.520;2024-02-26T07:49:07;23.50;44.70
75615;DHT22;64199;48.578;-4.520;2024-02-26T07:51:33;23.50;44.70
75615;DHT22;64199;48.578;-4.520;2024-02-26T07:54:00;23.50;44.70
75615;DHT22;64199;48.578;-4.520;2024-02-26T07:56:26;23.40;44.60
75615;DHT22;64199;48.578;-4.520;2024-02-26T07:58:52;23.40;44.60
75615;DHT22;64199;48.578;-4.520;2024-02-26T08:01:18;23.20;44.40
75615;DHT22;64199;48.578;-4.520;2024-02-26T08:03:44;23.40;45.00
75615;DHT22;64199;48.578;-4.520;2024-02-26T08:06:10;22.60;44.00
75615;DHT22;64199;48.578;-4.520;2024-02-26T08:08:35;24.80;45.10
75615;DHT22;64199;48.578;-4.520;2024-02-26T08:11:01;23.40;44.70
75615;DHT22;64199;48.578;-4.520;2024-02-26T08:13:27;23.40;44.60
75615;DHT22;64199;48.578;-4.520;2024-02-26T08:15:53;23.50;44.50
75615;DHT22;64199;48.578;-4.520;2024-02-26T08:18:20;23.40;44.30
75615;DHT22;64199;48.578;-4.520;2024-02-26T08:20:46;23.40;44.30
75615;DHT22;64199;48.578;-4.520;2024-02-26T08:23:13;23.40;44.50
75615;DHT22;64199;48.578;-4.520;2024-02-26T08:25:39;23.40;44.60
75615;DHT22;64199;48.578;-4.520;2024-02-26T08:28:05;23.40;44.50
75615;DHT22;64199;48.578;-4.520;2024-02-26T08:30:31;23.40;44.40
75615;DHT22;64199;48.578;-4.520;2024-02-26T08:32:57;23.40;44.30
75615;DHT22;64199;48.578;-4.520;2024-02-26T08:35:23;23.40;44.30
75615;DHT22;64199;48.578;-4.520;2024-02-26T08:37:48;23.40;44.30
75615;DHT22;64199;48.578;-4.520;2024-02-26T08:40:15;23.40;44.30
75615;DHT22;64199;48.578;-4.520;2024-02-26T08:42:41;23.40;44.30
75615;DHT22;64199;48.578;-4.520;2024-02-26T08:45:08;23.40;44.40
75615;DHT22;64199;48.578;-4.520;2024-02-26T08:47:34;23.40;44.30
75615;DHT22;64199;48.578;-4.520;2024-02-26T08:50:00;23.40;44.30
75615;DHT22;64199;48.578;-4.520;2024-02-26T08:52:25;23.40;44.30
75615;DHT22;64199;48.578;-4.520;2024-02-26T08:54:51;23.30;44.20
75615;DHT22;64199;48.578;-4.520;2024-02-26T08:57:17;23.40;44.20
75615;DHT22;64199;48.578;-4.520;2024-02-26T08:59:43;23.30;44.00
75615;DHT22;64199;48.578;-4.520;2024-02-26T09:02:09;23.40;44.00
75615;DHT22;64199;48.578;-4.520;2024-02-26T09:04:35;23.40;44.00
75615;DHT22;64199;48.578;-4.520;2024-02-26T09:07:01;23.30;43.90
75615;DHT22;64199;48.578;-4.520;2024-02-26T09:09:27;23.30;43.90
75615;DHT22;64199;48.578;-4.520;2024-02-26T09:11:53;23.30;43.90
75615;DHT22;64199;48.578;-4.520;2024-02-26T09:14:21;23.30;43.90
75615;DHT22;64199;48.578;-4.520;2024-02-26T09:16:47;23.30;43.80
75615;DHT22;64199;48.578;-4.520;2024-02-26T09:19:17;23.30;43.70
75615;DHT22;64199;48.578;-4.520;2024-02-26T09:21:43;23.30;43.80
75615;DHT22;64199;48.578;-4.520;2024-02-26T09:24:10;23.30;43.70
75615;DHT22;64199;48.578;-4.520;2024-02-26T09:26:37;23.30;43.60
75615;DHT22;64199;48.578;-4.520;2024-02-26T09:29:03;23.20;43.60
75615;DHT22;64199;48.578;-4.520;2024-02-26T09:31:30;23.20;43.70
75615;DHT22;64199;48.578;-4.520;2024-02-26T09:33:56;23.20;43.70
75615;DHT22;64199;48.578;-4.520;2024-02-26T09:36:21;23.20;43.70
75615;DHT22;64199;48.578;-4.520;2024-02-26T09:38:48;23.20;43.60
75615;DHT22;64199;48.578;-4.520;2024-02-26T09:41:17;23.20;43.80
75615;DHT22;64199;48.578;-4.520;2024-02-26T09:43:44;23.20;43.10
75615;DHT22;64199;48.578;-4.520;2024-02-26T09:46:11;23.20;43.00
75615;DHT22;64199;48.578;-4.520;2024-02-26T09:48:38;23.40;43.60
75615;DHT22;64199;48.578;-4.520;2024-02-26T09:51:04;23.20;43.70
75615;DHT22;64199;48.578;-4.520;2024-02-26T09:53:32;23.20;43.90
75615;DHT22;64199;48.578;-4.520;2024-02-26T09:55:58;23.20;43.90
75615;DHT22;64199;48.578;-4.520;2024-02-26T09:58:26;23.20;43.80
75615;DHT22;64199;48.578;-4.520;2024-02-26T10:00:53;23.20;43.80
75615;DHT22;64199;48.578;-4.520;2024-02-26T10:03:21;23.20;43.80
75615;DHT22;64199;48.578;-4.520;2024-02-26T10:05:48;23.10;43.70
75615;DHT22;64199;48.578;-4.520;2024-02-26T10:08:15;23.10;43.70
75615;DHT22;64199;48.578;-4.520;2024-02-26T10:10:41;23.10;43.70
75615;DHT22;64199;48.578;-4.520;2024-02-26T10:13:08;23.10;43.70
75615;DHT22;64199;48.578;-4.520;2024-02-26T10:15:36;23.10;43.60
75615;DHT22;64199;48.578;-4.520;2024-02-26T10:18:08;23.10;43.60
75615;DHT22;64199;48.578;-4.520;2024-02-26T10:20:33;23.10;43.70
75615;DHT22;64199;48.578;-4.520;2024-02-26T10:23:03;23.10;43.70
75615;DHT22;64199;48.578;-4.520;2024-02-26T10:25:29;23.10;43.70
75615;DHT22;64199;48.578;-4.520;2024-02-26T10:28:00;23.20;43.70
75615;DHT22;64199;48.578;-4.520;2024-02-26T10:30:28;23.10;43.70
75615;DHT22;64199;48.578;-4.520;2024-02-26T10:32:55;23.10;43.60
75615;DHT22;64199;48.578;-4.520;2024-02-26T10:35:21;23.10;43.60
75615;DHT22;64199;48.578;-4.520;2024-02-26T10:37:48;23.10;43.50
75615;DHT22;64199;48.578;-4.520;2024-02-26T10:40:15;23.10;43.50
75615;DHT22;64199;48.578;-4.520;2024-02-26T10:42:42;23.10;43.50
75615;DHT22;64199;48.578;-4.520;2024-02-26T10:45:09;23.10;43.40
75615;DHT22;64199;48.578;-4.520;2024-02-26T10:47:35;23.10;43.50
75615;DHT22;64199;48.578;-4.520;2024-02-26T10:50:03;23.20;43.50
75615;DHT22;64199;48.578;-4.520;2024-02-26T10:52:32;23.10;43.00
75615;DHT22;64199;48.578;-4.520;2024-02-26T10:55:02;23.10;43.50
75615;DHT22;64199;48.578;-4.520;2024-02-26T10:57:38;23.10;43.50
75615;DHT22;64199;48.578;-4.520;2024-02-26T11:00:05;23.10;43.50
75615;DHT22;64199;48.578;-4.520;2024-02-26T11:02:36;23.00;43.40
75615;DHT22;64199;48.578;-4.520;2024-02-26T11:05:06;23.10;43.40
75615;DHT22;64199;48.578;-4.520;2024-02-26T11:07:33;23.10;43.50
75615;DHT22;64199;48.578;-4.520;2024-02-26T11:10:00;23.10;43.50
75615;DHT22;64199;48.578;-4.520;2024-02-26T11:12:29;23.10;43.40
75615;DHT22;64199;48.578;-4.520;2024-02-26T11:14:58;23.10;43.40
75615;DHT22;64199;48.578;-4.520;2024-02-26T11:17:28;23.10;43.50
75615;DHT22;64199;48.578;-4.520;2024-02-26T11:19:58;23.10;43.50
75615;DHT22;64199;48.578;-4.520;2024-02-26T11:22:26;23.10;43.30
75615;DHT22;64199;48.578;-4.520;2024-02-26T11:24:53;23.10;43.30
75615;DHT22;64199;48.578;-4.520;2024-02-26T11:27:26;23.10;43.00
75615;DHT22;64199;48.578;-4.520;2024-02-26T11:29:56;23.10;43.50
75615;DHT22;64199;48.578;-4.520;2024-02-26T11:32:28;23.10;43.60
75615;DHT22;64199;48.578;-4.520;2024-02-26T11:34:57;23.10;43.60
75615;DHT22;64199;48.578;-4.520;2024-02-26T11:37:23;23.10;43.50
75615;DHT22;64199;48.578;-4.520;2024-02-26T11:39:51;23.10;43.40
75615;DHT22;64199;48.578;-4.520;2024-02-26T11:42:23;23.10;43.30
75615;DHT22;64199;48.578;-4.520;2024-02-26T11:44:49;23.10;43.30
75615;DHT22;64199;48.578;-4.520;2024-02-26T11:47:20;23.10;43.20
75615;DHT22;64199;48.578;-4.520;2024-02-26T11:49:47;23.10;43.20
75615;DHT22;64199;48.578;-4.520;2024-02-26T11:52:14;23.10;43.20
75615;DHT22;64199;48.578;-4.520;2024-02-26T11:54:56;23.20;43.20
75615;DHT22;64199;48.578;-4.520;2024-02-26T11:57:23;23.10;43.30
75615;DHT22;64199;48.578;-4.520;2024-02-26T11:59:49;23.20;43.30
75615;DHT22;64199;48.578;-4.520;2024-02-26T12:02:47;23.10;43.30
75615;DHT22;64199;48.578;-4.520;2024-02-26T12:05:20;23.20;43.30
75615;DHT22;64199;48.578;-4.520;2024-02-26T12:07:59;23.10;43.30
75615;DHT22;64199;48.578;-4.520;2024-02-26T12:10:27;23.20;43.40
75615;DHT22;64199;48.578;-4.520;2024-02-26T12:13:02;23.20;43.50
75615;DHT22;64199;48.578;-4.520;2024-02-26T12:15:31;23.20;43.60
75615;DHT22;64199;48.578;-4.520;2024-02-26T12:18:00;23.10;43.60
75615;DHT22;64199;48.578;-4.520;2024-02-26T12:20:26;23.20;43.50
75615;DHT22;64199;48.578;-4.520;2024-02-26T12:22:52;23.10;43.40
75615;DHT22;64199;48.578;-4.520;2024-02-26T12:25:25;23.10;43.40
75615;DHT22;64199;48.578;-4.520;2024-02-26T12:27:55;23.10;43.40
75615;DHT22;64199;48.578;-4.520;2024-02-26T12:30:22;23.10;43.40
75615;DHT22;64199;48.578;-4.520;2024-02-26T12:32:49;23.10;43.40
75615;DHT22;64199;48.578;-4.520;2024-02-26T12:35:16;23.20;43.50
75615;DHT22;64199;48.578;-4.520;2024-02-26T12:37:46;23.20;43.50
75615;DHT22;64199;48.578;-4.520;2024-02-26T12:40:12;23.20;42.90
75615;DHT22;64199;48.578;-4.520;2024-02-26T12:42:39;23.20;43.40
75615;DHT22;64199;48.578;-4.520;2024-02-26T12:45:07;23.20;43.20
75615;DHT22;64199;48.578;-4.520;2024-02-26T12:50:04;23.20;43.20
75615;DHT22;64199;48.578;-4.520;2024-02-26T12:52:34;23.20;43.10
75615;DHT22;64199;48.578;-4.520;2024-02-26T12:55:04;23.20;43.10
75615;DHT22;64199;48.578;-4.520;2024-02-26T12:57:37;23.20;43.30
75615;DHT22;64199;48.578;-4.520;2024-02-26T13:00:05;23.20;43.30
75615;DHT22;64199;48.578;-4.520;2024-02-26T13:02:32;23.20;43.20
75615;DHT22;64199;48.578;-4.520;2024-02-26T13:04:59;23.20;43.20
75615;DHT22;64199;48.578;-4.520;2024-02-26T13:07:27;23.20;43.20
75615;DHT22;64199;48.578;-4.520;2024-02-26T13:09:53;23.30;43.90
75615;DHT22;64199;48.578;-4.520;2024-02-26T13:12:19;23.30;43.20
75615;DHT22;64199;48.578;-4.520;2024-02-26T13:14:45;23.20;43.20
75615;DHT22;64199;48.578;-4.520;2024-02-26T13:17:11;23.20;42.40
75615;DHT22;64199;48.578;-4.520;2024-02-26T13:19:36;23.20;43.00
75615;DHT22;64199;48.578;-4.520;2024-02-26T13:22:06;23.20;43.00
75615;DHT22;64199;48.578;-4.520;2024-02-26T13:24:34;23.20;43.70
75615;DHT22;64199;48.578;-4.520;2024-02-26T13:26:59;23.30;43.10
75615;DHT22;64199;48.578;-4.520;2024-02-26T13:29:26;24.30;42.90
75615;DHT22;64199;48.578;-4.520;2024-02-26T13:31:57;23.30;43.00
75615;DHT22;64199;48.578;-4.520;2024-02-26T13:34:27;23.30;43.10
75615;DHT22;64199;48.578;-4.520;2024-02-26T13:36:56;23.30;43.70
75615;DHT22;64199;48.578;-4.520;2024-02-26T13:39:23;23.20;42.40
75615;DHT22;64199;48.578;-4.520;2024-02-26T13:41:50;23.30;43.00
75615;DHT22;64199;48.578;-4.520;2024-02-26T13:44:16;23.30;43.00
75615;DHT22;64199;48.578;-4.520;2024-02-26T13:46:42;23.30;43.10
75615;DHT22;64199;48.578;-4.520;2024-02-26T13:49:09;23.30;43.10
75615;DHT22;64199;48.578;-4.520;2024-02-26T13:51:36;23.30;43.00
75615;DHT22;64199;48.578;-4.520;2024-02-26T13:54:02;23.30;43.00
75615;DHT22;64199;48.578;-4.520;2024-02-26T13:56:30;23.30;43.10
75615;DHT22;64199;48.578;-4.520;2024-02-26T13:58:56;23.40;43.00
75615;DHT22;64199;48.578;-4.520;2024-02-26T14:01:22;23.40;42.90
75615;DHT22;64199;48.578;-4.520;2024-02-26T14:03:48;23.30;43.00
75615;DHT22;64199;48.578;-4.520;2024-02-26T14:06:15;23.40;43.00
75615;DHT22;64199;48.578;-4.520;2024-02-26T14:08:41;23.40;42.90
75615;DHT22;64199;48.578;-4.520;2024-02-26T14:11:07;23.30;42.90
75615;DHT22;64199;48.578;-4.520;2024-02-26T14:13:32;23.40;42.90
75615;DHT22;64199;48.578;-4.520;2024-02-26T14:15:58;23.40;42.70
75615;DHT22;64199;48.578;-4.520;2024-02-26T14:18:24;23.40;42.80
75615;DHT22;64199;48.578;-4.520;2024-02-26T14:20:50;23.40;42.80
75615;DHT22;64199;48.578;-4.520;2024-02-26T14:23:17;23.40;42.80
75615;DHT22;64199;48.578;-4.520;2024-02-26T14:25:42;23.40;42.90
75615;DHT22;64199;48.578;-4.520;2024-02-26T14:28:08;23.40;42.80
75615;DHT22;64199;48.578;-4.520;2024-02-26T14:30:34;23.40;42.90
75615;DHT22;64199;48.578;-4.520;2024-02-26T14:33:00;23.40;42.80
75615;DHT22;64199;48.578;-4.520;2024-02-26T14:35:26;23.40;42.80
75615;DHT22;64199;48.578;-4.520;2024-02-26T14:37:52;23.40;42.80
75615;DHT22;64199;48.578;-4.520;2024-02-26T14:40:18;23.50;42.80
75615;DHT22;64199;48.578;-4.520;2024-02-26T14:42:44;23.50;42.80
75615;DHT22;64199;48.578;-4.520;2024-02-26T14:45:10;23.50;43.30
75615;DHT22;64199;48.578;-4.520;2024-02-26T14:47:37;23.50;42.70
75615;DHT22;64199;48.578;-4.520;2024-02-26T14:50:04;23.50;43.40
75615;DHT22;64199;48.578;-4.520;2024-02-26T14:52:30;23.50;42.90
75615;DHT22;64199;48.578;-4.520;2024-02-26T14:54:56;23.50;42.90
75615;DHT22;64199;48.578;-4.520;2024-02-26T14:57:24;23.50;42.90
75615;DHT22;64199;48.578;-4.520;2024-02-26T14:59:50;23.50;42.90
75615;DHT22;64199;48.578;-4.520;2024-02-26T15:02:17;23.50;43.00
75615;DHT22;64199;48.578;-4.520;2024-02-26T15:04:43;23.50;43.00
75615;DHT22;64199;48.578;-4.520;2024-02-26T15:07:10;23.50;43.00
75615;DHT22;64199;48.578;-4.520;2024-02-26T15:09:37;23.50;42.90
75615;DHT22;64199;48.578;-4.520;2024-02-26T15:12:04;23.50;42.90
75615;DHT22;64199;48.578;-4.520;2024-02-26T15:14:32;23.50;42.90